sensor_id;sensor_type;location;lat;lon;timestamp;P1;durP1;ratioP1;P2;durP2;ratioP2
69327;SDS011;56472;52.114;5.492;2023-06-19T00:02:08;8.55;;;7.03;;
69327;SDS011;56472;52.114;5.492;2023-06-19T00:04:35;9.27;;;7.15;;
69327;SDS011;56472;52.114;5.492;2023-06-19T00:07:03;8.82;;;6.90;;
69327;SDS011;56472;52.114;5.492;2023-06-19T00:09:31;8.25;;;6.65;;
69327;SDS011;56472;52.114;5.492;2023-06-19T00:11:59;7.68;;;7.07;;
69327;SDS011;56472;52.114;5.492;2023-06-19T00:14:27;8.32;;;7.45;;
69327;SDS011;56472;52.114;5.492;2023-06-19T00:16:54;7.50;;;6.78;;
69327;SDS011;56472;52.114;5.492;2023-06-19T00:19:22;10.68;;;6.97;;
69327;SDS011;56472;52.114;5.492;2023-06-19T00:21:49;11.38;;;7.07;;
69327;SDS011;56472;52.114;5.492;2023-06-19T00:24:16;7.25;;;6.65;;
69327;SDS011;56472;52.114;5.492;2023-06-19T00:26:43;7.47;;;6.70;;
69327;SDS011;56472;52.114;5.492;2023-06-19T00:29:10;9.48;;;7.05;;
69327;SDS011;56472;52.114;5.492;2023-06-19T00:31:37;9.45;;;7.03;;
69327;SDS011;56472;52.114;5.492;2023-06-19T00:34:04;7.70;;;7.00;;
69327;SDS011;56472;52.114;5.492;2023-06-19T00:36:31;7.93;;;6.78;;
69327;SDS011;56472;52.114;5.492;2023-06-19T00:38:58;7.72;;;6.97;;
69327;SDS011;56472;52.114;5.492;2023-06-19T00:41:26;8.15;;;7.30;;
69327;SDS011;56472;52.114;5.492;2023-06-19T00:43:54;14.38;;;7.70;;
69327;SDS011;56472;52.114;5.492;2023-06-19T00:46:20;8.20;;;7.32;;
69327;SDS011;56472;52.114;5.492;2023-06-19T00:48:48;8.02;;;7.22;;
69327;SDS011;56472;52.114;5.492;2023-06-19T00:51:17;8.95;;;6.90;;
69327;SDS011;56472;52.114;5.492;2023-06-19T00:53:44;8.38;;;6.95;;
69327;SDS011;56472;52.114;5.492;2023-06-19T00:56:11;9.35;;;7.88;;
69327;SDS011;56472;52.114;5.492;2023-06-19T00:58:38;8.07;;;7.28;;
69327;SDS011;56472;52.114;5.492;2023-06-19T01:01:06;9.50;;;6.97;;
69327;SDS011;56472;52.114;5.492;2023-06-19T01:03:36;8.20;;;7.18;;
69327;SDS011;56472;52.114;5.492;2023-06-19T01:06:08;9.15;;;6.68;;
69327;SDS011;56472;52.114;5.492;2023-06-19T01:11:15;7.57;;;6.78;;
69327;SDS011;56472;52.114;5.492;2023-06-19T01:13:58;7.03;;;6.32;;
69327;SDS011;56472;52.114;5.492;2023-06-19T01:16:27;8.48;;;6.60;;
69327;SDS011;56472;52.114;5.492;2023-06-19T01:18:56;7.40;;;6.70;;
69327;SDS011;56472;52.114;5.492;2023-06-19T01:21:24;11.15;;;6.18;;
69327;SDS011;56472;52.114;5.492;2023-06-19T01:23:51;7.10;;;6.13;;
69327;SDS011;56472;52.114;5.492;2023-06-19T01:26:19;7.32;;;6.25;;
69327;SDS011;56472;52.114;5.492;2023-06-19T01:28:52;8.07;;;6.13;;
69327;SDS011;56472;52.114;5.492;2023-06-19T01:31:23;10.15;;;7.13;;
69327;SDS011;56472;52.114;5.492;2023-06-19T01:33:56;8.52;;;6.80;;
69327;SDS011;56472;52.114;5.492;2023-06-19T01:36:25;11.15;;;6.47;;
69327;SDS011;56472;52.114;5.492;2023-06-19T01:38:53;9.07;;;6.78;;
69327;SDS011;56472;52.114;5.492;2023-06-19T01:41:23;10.80;;;7.28;;
69327;SDS011;56472;52.114;5.492;2023-06-19T01:43:52;8.18;;;7.38;;
69327;SDS011;56472;52.114;5.492;2023-06-19T01:46:20;9.48;;;6.90;;
69327;SDS011;56472;52.114;5.492;2023-06-19T01:48:47;8.73;;;7.00;;
69327;SDS011;56472;52.114;5.492;2023-06-19T01:51:14;10.35;;;7.68;;
69327;SDS011;56472;52.114;5.492;2023-06-19T01:53:42;10.52;;;7.10;;
69327;SDS011;56472;52.114;5.492;2023-06-19T01:56:08;9.18;;;6.85;;
69327;SDS011;56472;52.114;5.492;2023-06-19T01:58:35;10.02;;;7.13;;
69327;SDS011;56472;52.114;5.492;2023-06-19T02:01:02;6.28;;;5.65;;
69327;SDS011;56472;52.114;5.492;2023-06-19T02:03:30;8.27;;;5.95;;
69327;SDS011;56472;52.114;5.492;2023-06-19T02:05:56;5.80;;;5.25;;
69327;SDS011;56472;52.114;5.492;2023-06-19T02:08:25;6.82;;;5.32;;
69327;SDS011;56472;52.114;5.492;2023-06-19T02:10:52;4.97;;;4.53;;
69327;SDS011;56472;52.114;5.492;2023-06-19T02:13:19;5.43;;;4.90;;
69327;SDS011;56472;52.114;5.492;2023-06-19T02:15:46;6.40;;;4.65;;
69327;SDS011;56472;52.114;5.492;2023-06-19T02:18:14;9.15;;;4.13;;
69327;SDS011;56472;52.114;5.492;2023-06-19T02:20:41;3.70;;;3.40;;
69327;SDS011;56472;52.114;5.492;2023-06-19T02:23:07;6.93;;;4.35;;
69327;SDS011;56472;52.114;5.492;2023-06-19T02:25:34;4.45;;;3.70;;
69327;SDS011;56472;52.114;5.492;2023-06-19T02:28:02;4.28;;;3.50;;
69327;SDS011;56472;52.114;5.492;2023-06-19T02:30:30;4.15;;;3.63;;
69327;SDS011;56472;52.114;5.492;2023-06-19T02:32:57;3.10;;;2.90;;
69327;SDS011;56472;52.114;5.492;2023-06-19T02:35:24;9.43;;;3.38;;
69327;SDS011;56472;52.114;5.492;2023-06-19T02:37:54;3.70;;;2.65;;
69327;SDS011;56472;52.114;5.492;2023-06-19T02:40:21;6.28;;;3.10;;
69327;SDS011;56472;52.114;5.492;2023-06-19T02:42:48;3.45;;;3.15;;
69327;SDS011;56472;52.114;5.492;2023-06-19T02:45:15;2.88;;;2.65;;
69327;SDS011;56472;52.114;5.492;2023-06-19T02:47:42;3.55;;;2.70;;
69327;SDS011;56472;52.114;5.492;2023-06-19T02:50:10;5.75;;;2.92;;
69327;SDS011;56472;52.114;5.492;2023-06-19T02:52:37;3.35;;;2.85;;
69327;SDS011;56472;52.114;5.492;2023-06-19T02:55:04;3.08;;;2.80;;
69327;SDS011;56472;52.114;5.492;2023-06-19T02:57:33;3.30;;;2.70;;
69327;SDS011;56472;52.114;5.492;2023-06-19T03:00:02;4.20;;;2.88;;
69327;SDS011;56472;52.114;5.492;2023-06-19T03:02:32;7.07;;;2.92;;
69327;SDS011;56472;52.114;5.492;2023-06-19T03:04:59;5.00;;;2.80;;
69327;SDS011;56472;52.114;5.492;2023-06-19T03:07:26;3.17;;;2.80;;
69327;SDS011;56472;52.114;5.492;2023-06-19T03:09:55;3.22;;;2.85;;
69327;SDS011;56472;52.114;5.492;2023-06-19T03:12:22;2.80;;;2.60;;
69327;SDS011;56472;52.114;5.492;2023-06-19T03:14:48;2.95;;;2.72;;
69327;SDS011;56472;52.114;5.492;2023-06-19T03:17:15;6.10;;;2.70;;
69327;SDS011;56472;52.114;5.492;2023-06-19T03:19:42;2.75;;;2.55;;
69327;SDS011;56472;52.114;5.492;2023-06-19T03:22:10;3.35;;;2.80;;
69327;SDS011;56472;52.114;5.492;2023-06-19T03:24:37;2.65;;;2.45;;
69327;SDS011;56472;52.114;5.492;2023-06-19T03:27:17;3.53;;;2.50;;
69327;SDS011;56472;52.114;5.492;2023-06-19T03:29:44;3.83;;;2.80;;
69327;SDS011;56472;52.114;5.492;2023-06-19T03:32:17;2.90;;;2.70;;
69327;SDS011;56472;52.114;5.492;2023-06-19T03:34:45;3.67;;;2.50;;
69327;SDS011;56472;52.114;5.492;2023-06-19T03:37:12;2.67;;;2.47;;
69327;SDS011;56472;52.114;5.492;2023-06-19T03:39:41;8.13;;;2.90;;
69327;SDS011;56472;52.114;5.492;2023-06-19T03:42:10;2.78;;;2.58;;
69327;SDS011;56472;52.114;5.492;2023-06-19T03:44:37;3.08;;;2.72;;
69327;SDS011;56472;52.114;5.492;2023-06-19T03:47:04;7.10;;;2.63;;
69327;SDS011;56472;52.114;5.492;2023-06-19T03:49:31;2.97;;;2.72;;
69327;SDS011;56472;52.114;5.492;2023-06-19T03:51:58;3.28;;;2.97;;
69327;SDS011;56472;52.114;5.492;2023-06-19T03:54:25;4.60;;;2.80;;
69327;SDS011;56472;52.114;5.492;2023-06-19T03:56:52;3.22;;;2.92;;
69327;SDS011;56472;52.114;5.492;2023-06-19T03:59:19;4.25;;;3.00;;
69327;SDS011;56472;52.114;5.492;2023-06-19T04:01:46;4.45;;;3.38;;
69327;SDS011;56472;52.114;5.492;2023-06-19T04:04:15;3.55;;;3.25;;
69327;SDS011;56472;52.114;5.492;2023-06-19T04:06:42;4.43;;;3.05;;
69327;SDS011;56472;52.114;5.492;2023-06-19T04:09:09;5.38;;;3.50;;
69327;SDS011;56472;52.114;5.492;2023-06-19T04:11:36;4.00;;;3.70;;
69327;SDS011;56472;52.114;5.492;2023-06-19T04:14:03;4.57;;;3.80;;
69327;SDS011;56472;52.114;5.492;2023-06-19T04:16:30;3.95;;;3.65;;
69327;SDS011;56472;52.114;5.492;2023-06-19T04:18:57;6.28;;;3.85;;
69327;SDS011;56472;52.114;5.492;2023-06-19T04:21:24;3.78;;;3.58;;
69327;SDS011;56472;52.114;5.492;2023-06-19T04:23:52;4.60;;;4.20;;
69327;SDS011;56472;52.114;5.492;2023-06-19T04:26:19;4.82;;;3.95;;
69327;SDS011;56472;52.114;5.492;2023-06-19T04:28:47;4.78;;;3.75;;
69327;SDS011;56472;52.114;5.492;2023-06-19T04:31:14;10.52;;;4.30;;
69327;SDS011;56472;52.114;5.492;2023-06-19T04:33:45;5.22;;;4.72;;
69327;SDS011;56472;52.114;5.492;2023-06-19T04:36:12;6.03;;;4.28;;
69327;SDS011;56472;52.114;5.492;2023-06-19T04:38:40;6.05;;;4.85;;
69327;SDS011;56472;52.114;5.492;2023-06-19T04:41:07;6.85;;;4.80;;
69327;SDS011;56472;52.114;5.492;2023-06-19T04:43:34;7.20;;;4.80;;
69327;SDS011;56472;52.114;5.492;2023-06-19T04:46:01;5.70;;;5.20;;
69327;SDS011;56472;52.114;5.492;2023-06-19T04:48:30;5.38;;;4.60;;
69327;SDS011;56472;52.114;5.492;2023-06-19T04:50:57;5.18;;;4.45;;
69327;SDS011;56472;52.114;5.492;2023-06-19T04:53:27;6.43;;;5.82;;
69327;SDS011;56472;52.114;5.492;2023-06-19T04:55:54;7.18;;;6.40;;
69327;SDS011;56472;52.114;5.492;2023-06-19T04:58:21;7.30;;;5.32;;
69327;SDS011;56472;52.114;5.492;2023-06-19T05:00:48;10.77;;;6.45;;
69327;SDS011;56472;52.114;5.492;2023-06-19T05:03:19;11.38;;;5.97;;
69327;SDS011;56472;52.114;5.492;2023-06-19T05:05:46;12.93;;;7.10;;
69327;SDS011;56472;52.114;5.492;2023-06-19T05:08:13;7.65;;;6.63;;
69327;SDS011;56472;52.114;5.492;2023-06-19T05:10:40;9.52;;;8.10;;
69327;SDS011;56472;52.114;5.492;2023-06-19T05:13:10;6.28;;;5.65;;
69327;SDS011;56472;52.114;5.492;2023-06-19T05:15:37;15.73;;;6.93;;
69327;SDS011;56472;52.114;5.492;2023-06-19T05:18:05;7.18;;;5.95;;
69327;SDS011;56472;52.114;5.492;2023-06-19T05:20:32;10.27;;;6.65;;
69327;SDS011;56472;52.114;5.492;2023-06-19T05:22:59;7.97;;;7.25;;
69327;SDS011;56472;52.114;5.492;2023-06-19T05:25:25;6.85;;;5.68;;
69327;SDS011;56472;52.114;5.492;2023-06-19T05:27:53;6.50;;;5.90;;
69327;SDS011;56472;52.114;5.492;2023-06-19T05:30:20;6.97;;;6.28;;
69327;SDS011;56472;52.114;5.492;2023-06-19T05:32:48;8.40;;;6.93;;
69327;SDS011;56472;52.114;5.492;2023-06-19T05:35:15;8.00;;;7.20;;
69327;SDS011;56472;52.114;5.492;2023-06-19T05:37:42;9.88;;;7.10;;
69327;SDS011;56472;52.114;5.492;2023-06-19T05:40:10;8.38;;;7.57;;
69327;SDS011;56472;52.114;5.492;2023-06-19T05:42:37;7.55;;;6.85;;
69327;SDS011;56472;52.114;5.492;2023-06-19T05:45:04;9.82;;;7.50;;
69327;SDS011;56472;52.114;5.492;2023-06-19T05:47:31;9.05;;;7.72;;
69327;SDS011;56472;52.114;5.492;2023-06-19T05:49:58;9.35;;;7.53;;
69327;SDS011;56472;52.114;5.492;2023-06-19T05:52:26;8.38;;;7.50;;
69327;SDS011;56472;52.114;5.492;2023-06-19T05:54:53;7.63;;;6.93;;
69327;SDS011;56472;52.114;5.492;2023-06-19T05:57:20;8.77;;;7.45;;
69327;SDS011;56472;52.114;5.492;2023-06-19T05:59:47;10.32;;;7.75;;
69327;SDS011;56472;52.114;5.492;2023-06-19T06:02:14;12.40;;;7.88;;
69327;SDS011;56472;52.114;5.492;2023-06-19T06:04:41;10.60;;;7.30;;
69327;SDS011;56472;52.114;5.492;2023-06-19T06:07:09;9.00;;;8.10;;
69327;SDS011;56472;52.114;5.492;2023-06-19T06:09:36;10.65;;;8.27;;
69327;SDS011;56472;52.114;5.492;2023-06-19T06:12:03;12.02;;;8.40;;
69327;SDS011;56472;52.114;5.492;2023-06-19T06:14:31;7.68;;;7.00;;
69327;SDS011;56472;52.114;5.492;2023-06-19T06:16:57;7.55;;;6.85;;
69327;SDS011;56472;52.114;5.492;2023-06-19T06:19:25;8.88;;;7.47;;
69327;SDS011;56472;52.114;5.492;2023-06-19T06:21:52;10.10;;;7.85;;
69327;SDS011;56472;52.114;5.492;2023-06-19T06:24:19;9.43;;;8.00;;
69327;SDS011;56472;52.114;5.492;2023-06-19T06:26:46;9.85;;;8.68;;
69327;SDS011;56472;52.114;5.492;2023-06-19T06:29:13;10.75;;;8.00;;
69327;SDS011;56472;52.114;5.492;2023-06-19T06:31:40;9.93;;;8.02;;
69327;SDS011;56472;52.114;5.492;2023-06-19T06:34:07;11.80;;;8.38;;
69327;SDS011;56472;52.114;5.492;2023-06-19T06:36:35;8.73;;;7.80;;
69327;SDS011;56472;52.114;5.492;2023-06-19T06:39:09;10.50;;;7.78;;
69327;SDS011;56472;52.114;5.492;2023-06-19T06:41:37;9.05;;;8.07;;
69327;SDS011;56472;52.114;5.492;2023-06-19T06:44:04;8.77;;;7.07;;
69327;SDS011;56472;52.114;5.492;2023-06-19T06:46:31;8.35;;;6.97;;
69327;SDS011;56472;52.114;5.492;2023-06-19T06:48:58;8.23;;;6.55;;
69327;SDS011;56472;52.114;5.492;2023-06-19T06:51:25;10.05;;;6.65;;
69327;SDS011;56472;52.114;5.492;2023-06-19T06:53:52;7.38;;;5.80;;
69327;SDS011;56472;52.114;5.492;2023-06-19T06:56:19;13.20;;;6.00;;
69327;SDS011;56472;52.114;5.492;2023-06-19T06:58:46;8.77;;;6.47;;
69327;SDS011;56472;52.114;5.492;2023-06-19T07:01:13;6.13;;;5.53;;
69327;SDS011;56472;52.114;5.492;2023-06-19T07:03:40;6.20;;;5.28;;
69327;SDS011;56472;52.114;5.492;2023-06-19T07:06:07;7.30;;;5.25;;
69327;SDS011;56472;52.114;5.492;2023-06-19T07:08:34;8.05;;;5.78;;
69327;SDS011;56472;52.114;5.492;2023-06-19T07:11:01;9.20;;;6.20;;
69327;SDS011;56472;52.114;5.492;2023-06-19T07:13:29;7.97;;;6.22;;
69327;SDS011;56472;52.114;5.492;2023-06-19T07:15:56;7.90;;;6.45;;
69327;SDS011;56472;52.114;5.492;2023-06-19T07:18:24;7.10;;;6.30;;
69327;SDS011;56472;52.114;5.492;2023-06-19T07:20:51;8.90;;;6.07;;
69327;SDS011;56472;52.114;5.492;2023-06-19T07:23:18;8.40;;;6.15;;
69327;SDS011;56472;52.114;5.492;2023-06-19T07:25:46;6.75;;;6.00;;
69327;SDS011;56472;52.114;5.492;2023-06-19T07:28:13;6.82;;;6.13;;
69327;SDS011;56472;52.114;5.492;2023-06-19T07:30:41;10.02;;;7.78;;
69327;SDS011;56472;52.114;5.492;2023-06-19T07:33:08;10.50;;;7.03;;
69327;SDS011;56472;52.114;5.492;2023-06-19T07:35:35;11.77;;;7.95;;
69327;SDS011;56472;52.114;5.492;2023-06-19T07:38:02;8.45;;;7.55;;
69327;SDS011;56472;52.114;5.492;2023-06-19T07:40:28;13.07;;;9.30;;
69327;SDS011;56472;52.114;5.492;2023-06-19T07:42:55;11.77;;;8.18;;
69327;SDS011;56472;52.114;5.492;2023-06-19T07:45:22;8.75;;;7.93;;
69327;SDS011;56472;52.114;5.492;2023-06-19T07:47:56;16.15;;;10.23;;
69327;SDS011;56472;52.114;5.492;2023-06-19T07:50:23;6.97;;;6.28;;
69327;SDS011;56472;52.114;5.492;2023-06-19T07:52:53;9.50;;;7.85;;
69327;SDS011;56472;52.114;5.492;2023-06-19T07:55:20;9.73;;;7.82;;
69327;SDS011;56472;52.114;5.492;2023-06-19T07:57:47;9.93;;;7.50;;
69327;SDS011;56472;52.114;5.492;2023-06-19T08:00:14;8.55;;;7.63;;
69327;SDS011;56472;52.114;5.492;2023-06-19T08:02:41;9.07;;;8.18;;
69327;SDS011;56472;52.114;5.492;2023-06-19T08:05:09;15.50;;;9.68;;
69327;SDS011;56472;52.114;5.492;2023-06-19T08:07:36;11.20;;;9.60;;
69327;SDS011;56472;52.114;5.492;2023-06-19T08:10:04;14.60;;;11.70;;
69327;SDS011;56472;52.114;5.492;2023-06-19T08:12:40;11.90;;;10.45;;
69327;SDS011;56472;52.114;5.492;2023-06-19T08:15:09;13.02;;;11.65;;
69327;SDS011;56472;52.114;5.492;2023-06-19T08:17:37;15.95;;;11.68;;
69327;SDS011;56472;52.114;5.492;2023-06-19T08:20:04;14.65;;;10.32;;
69327;SDS011;56472;52.114;5.492;2023-06-19T08:22:31;13.00;;;10.73;;
69327;SDS011;56472;52.114;5.492;2023-06-19T08:24:58;15.68;;;13.73;;
69327;SDS011;56472;52.114;5.492;2023-06-19T08:27:25;14.45;;;11.80;;
69327;SDS011;56472;52.114;5.492;2023-06-19T08:29:52;18.42;;;10.18;;
69327;SDS011;56472;52.114;5.492;2023-06-19T08:32:19;13.68;;;11.68;;
69327;SDS011;56472;52.114;5.492;2023-06-19T08:34:46;17.73;;;13.18;;
69327;SDS011;56472;52.114;5.492;2023-06-19T08:37:13;14.77;;;13.25;;
69327;SDS011;56472;52.114;5.492;2023-06-19T08:39:40;17.02;;;12.02;;
69327;SDS011;56472;52.114;5.492;2023-06-19T08:42:07;14.95;;;12.35;;
69327;SDS011;56472;52.114;5.492;2023-06-19T08:44:35;13.35;;;8.90;;
69327;SDS011;56472;52.114;5.492;2023-06-19T08:47:05;21.63;;;11.45;;
69327;SDS011;56472;52.114;5.492;2023-06-19T08:49:33;21.08;;;11.30;;
69327;SDS011;56472;52.114;5.492;2023-06-19T08:52:02;14.68;;;10.30;;
69327;SDS011;56472;52.114;5.492;2023-06-19T08:54:30;16.92;;;11.20;;
69327;SDS011;56472;52.114;5.492;2023-06-19T08:57:01;16.35;;;11.45;;
69327;SDS011;56472;52.114;5.492;2023-06-19T08:59:29;9.23;;;8.32;;
69327;SDS011;56472;52.114;5.492;2023-06-19T09:01:58;15.77;;;10.90;;
69327;SDS011;56472;52.114;5.492;2023-06-19T09:04:29;11.33;;;8.93;;
69327;SDS011;56472;52.114;5.492;2023-06-19T09:06:58;16.10;;;11.23;;
69327;SDS011;56472;52.114;5.492;2023-06-19T09:09:28;19.60;;;10.90;;
69327;SDS011;56472;52.114;5.492;2023-06-19T09:12:08;17.30;;;11.25;;
69327;SDS011;56472;52.114;5.492;2023-06-19T09:14:40;15.63;;;12.98;;
69327;SDS011;56472;52.114;5.492;2023-06-19T09:17:12;17.83;;;11.52;;
69327;SDS011;56472;52.114;5.492;2023-06-19T09:19:50;17.48;;;11.85;;
69327;SDS011;56472;52.114;5.492;2023-06-19T09:22:18;12.27;;;10.98;;
69327;SDS011;56472;52.114;5.492;2023-06-19T09:24:48;26.95;;;11.85;;
69327;SDS011;56472;52.114;5.492;2023-06-19T09:27:16;12.38;;;9.13;;
69327;SDS011;56472;52.114;5.492;2023-06-19T09:29:49;19.50;;;14.10;;
69327;SDS011;56472;52.114;5.492;2023-06-19T09:34:50;15.75;;;12.52;;
69327;SDS011;56472;52.114;5.492;2023-06-19T09:39:56;12.70;;;11.07;;
69327;SDS011;56472;52.114;5.492;2023-06-19T09:42:30;18.63;;;10.07;;
69327;SDS011;56472;52.114;5.492;2023-06-19T09:45:02;15.80;;;11.90;;
69327;SDS011;56472;52.114;5.492;2023-06-19T09:47:32;15.55;;;9.65;;
69327;SDS011;56472;52.114;5.492;2023-06-19T09:50:12;15.70;;;12.02;;
69327;SDS011;56472;52.114;5.492;2023-06-19T09:52:40;10.77;;;9.68;;
69327;SDS011;56472;52.114;5.492;2023-06-19T09:55:09;12.13;;;10.15;;
69327;SDS011;56472;52.114;5.492;2023-06-19T09:57:39;14.40;;;10.98;;
69327;SDS011;56472;52.114;5.492;2023-06-19T10:00:08;15.45;;;10.25;;
69327;SDS011;56472;52.114;5.492;2023-06-19T10:02:42;18.55;;;13.55;;
69327;SDS011;56472;52.114;5.492;2023-06-19T10:05:10;19.85;;;14.48;;
69327;SDS011;56472;52.114;5.492;2023-06-19T10:07:42;11.77;;;10.30;;
69327;SDS011;56472;52.114;5.492;2023-06-19T10:10:23;11.88;;;10.70;;
69327;SDS011;56472;52.114;5.492;2023-06-19T10:12:53;12.60;;;10.57;;
69327;SDS011;56472;52.114;5.492;2023-06-19T10:17:51;17.17;;;12.80;;
69327;SDS011;56472;52.114;5.492;2023-06-19T10:23:16;10.52;;;9.43;;
69327;SDS011;56472;52.114;5.492;2023-06-19T10:25:47;12.82;;;9.77;;
69327;SDS011;56472;52.114;5.492;2023-06-19T10:28:24;11.43;;;10.23;;
69327;SDS011;56472;52.114;5.492;2023-06-19T10:33:27;10.75;;;9.65;;
69327;SDS011;56472;52.114;5.492;2023-06-19T10:35:54;13.52;;;10.23;;
69327;SDS011;56472;52.114;5.492;2023-06-19T10:38:21;11.73;;;10.07;;
69327;SDS011;56472;52.114;5.492;2023-06-19T10:40:48;11.45;;;9.75;;
69327;SDS011;56472;52.114;5.492;2023-06-19T10:43:19;11.02;;;9.93;;
69327;SDS011;56472;52.114;5.492;2023-06-19T10:45:58;16.65;;;11.93;;
69327;SDS011;56472;52.114;5.492;2023-06-19T10:48:28;15.48;;;11.05;;
69327;SDS011;56472;52.114;5.492;2023-06-19T10:50:55;14.82;;;9.70;;
69327;SDS011;56472;52.114;5.492;2023-06-19T10:53:30;13.40;;;9.90;;
69327;SDS011;56472;52.114;5.492;2023-06-19T10:55:59;12.13;;;10.45;;
69327;SDS011;56472;52.114;5.492;2023-06-19T10:58:28;10.30;;;8.82;;
69327;SDS011;56472;52.114;5.492;2023-06-19T11:00:55;10.23;;;9.20;;
69327;SDS011;56472;52.114;5.492;2023-06-19T11:03:23;9.65;;;8.07;;
69327;SDS011;56472;52.114;5.492;2023-06-19T11:05:50;10.95;;;9.85;;
69327;SDS011;56472;52.114;5.492;2023-06-19T11:08:21;9.80;;;8.82;;
69327;SDS011;56472;52.114;5.492;2023-06-19T11:10:49;11.00;;;9.27;;
69327;SDS011;56472;52.114;5.492;2023-06-19T11:13:17;13.52;;;9.68;;
69327;SDS011;56472;52.114;5.492;2023-06-19T11:15:45;16.10;;;9.43;;
69327;SDS011;56472;52.114;5.492;2023-06-19T11:18:16;11.95;;;9.15;;
69327;SDS011;56472;52.114;5.492;2023-06-19T11:20:51;9.93;;;9.02;;
69327;SDS011;56472;52.114;5.492;2023-06-19T11:23:29;12.82;;;8.73;;
69327;SDS011;56472;52.114;5.492;2023-06-19T11:26:06;11.35;;;8.68;;
69327;SDS011;56472;52.114;5.492;2023-06-19T11:28:33;14.50;;;9.23;;
69327;SDS011;56472;52.114;5.492;2023-06-19T11:31:02;14.32;;;9.10;;
69327;SDS011;56472;52.114;5.492;2023-06-19T11:33:30;9.02;;;8.10;;
69327;SDS011;56472;52.114;5.492;2023-06-19T11:35:59;13.23;;;9.77;;
69327;SDS011;56472;52.114;5.492;2023-06-19T11:38:29;9.02;;;7.72;;
69327;SDS011;56472;52.114;5.492;2023-06-19T11:40:56;12.07;;;8.15;;
69327;SDS011;56472;52.114;5.492;2023-06-19T11:43:28;14.55;;;8.80;;
69327;SDS011;56472;52.114;5.492;2023-06-19T11:46:03;10.60;;;8.25;;
69327;SDS011;56472;52.114;5.492;2023-06-19T11:48:31;15.00;;;7.55;;
69327;SDS011;56472;52.114;5.492;2023-06-19T11:50:59;12.93;;;8.30;;
69327;SDS011;56472;52.114;5.492;2023-06-19T11:53:25;17.08;;;8.50;;
69327;SDS011;56472;52.114;5.492;2023-06-19T11:55:52;9.18;;;8.23;;
69327;SDS011;56472;52.114;5.492;2023-06-19T11:58:19;13.68;;;7.85;;
69327;SDS011;56472;52.114;5.492;2023-06-19T12:00:47;9.02;;;7.22;;
69327;SDS011;56472;52.114;5.492;2023-06-19T12:03:15;9.90;;;7.07;;
69327;SDS011;56472;52.114;5.492;2023-06-19T12:05:42;10.95;;;8.15;;
69327;SDS011;56472;52.114;5.492;2023-06-19T12:08:09;14.82;;;7.80;;
69327;SDS011;56472;52.114;5.492;2023-06-19T12:10:36;9.70;;;7.88;;
69327;SDS011;56472;52.114;5.492;2023-06-19T12:13:03;12.20;;;7.80;;
69327;SDS011;56472;52.114;5.492;2023-06-19T12:15:30;10.18;;;7.90;;
69327;SDS011;56472;52.114;5.492;2023-06-19T12:17:59;9.57;;;8.02;;
69327;SDS011;56472;52.114;5.492;2023-06-19T12:20:26;9.70;;;8.63;;
69327;SDS011;56472;52.114;5.492;2023-06-19T12:22:53;13.38;;;8.15;;
69327;SDS011;56472;52.114;5.492;2023-06-19T12:25:21;10.93;;;7.88;;
69327;SDS011;56472;52.114;5.492;2023-06-19T12:27:48;9.35;;;8.45;;
69327;SDS011;56472;52.114;5.492;2023-06-19T12:30:20;10.07;;;7.93;;
69327;SDS011;56472;52.114;5.492;2023-06-19T12:32:48;12.98;;;9.52;;
69327;SDS011;56472;52.114;5.492;2023-06-19T12:35:16;12.55;;;9.35;;
69327;SDS011;56472;52.114;5.492;2023-06-19T12:37:44;12.65;;;9.73;;
69327;SDS011;56472;52.114;5.492;2023-06-19T12:40:12;11.20;;;10.02;;
69327;SDS011;56472;52.114;5.492;2023-06-19T12:42:39;15.20;;;9.43;;
69327;SDS011;56472;52.114;5.492;2023-06-19T12:45:06;9.40;;;8.45;;
69327;SDS011;56472;52.114;5.492;2023-06-19T12:47:33;9.23;;;8.30;;
69327;SDS011;56472;52.114;5.492;2023-06-19T12:50:00;9.52;;;8.25;;
69327;SDS011;56472;52.114;5.492;2023-06-19T12:52:27;9.00;;;8.10;;
69327;SDS011;56472;52.114;5.492;2023-06-19T12:54:54;10.52;;;8.35;;
69327;SDS011;56472;52.114;5.492;2023-06-19T12:57:21;12.70;;;8.48;;
69327;SDS011;56472;52.114;5.492;2023-06-19T12:59:48;10.13;;;8.57;;
69327;SDS011;56472;52.114;5.492;2023-06-19T13:02:15;7.93;;;7.22;;
69327;SDS011;56472;52.114;5.492;2023-06-19T13:04:42;12.10;;;7.95;;
69327;SDS011;56472;52.114;5.492;2023-06-19T13:07:09;11.48;;;7.90;;
69327;SDS011;56472;52.114;5.492;2023-06-19T13:09:36;9.93;;;7.65;;
69327;SDS011;56472;52.114;5.492;2023-06-19T13:12:03;8.02;;;7.22;;
69327;SDS011;56472;52.114;5.492;2023-06-19T13:14:30;10.32;;;7.32;;
69327;SDS011;56472;52.114;5.492;2023-06-19T13:16:58;8.50;;;7.72;;
69327;SDS011;56472;52.114;5.492;2023-06-19T13:19:26;8.05;;;7.28;;
69327;SDS011;56472;52.114;5.492;2023-06-19T13:21:53;9.43;;;7.85;;
69327;SDS011;56472;52.114;5.492;2023-06-19T13:24:20;8.10;;;7.30;;
69327;SDS011;56472;52.114;5.492;2023-06-19T13:26:47;8.30;;;7.28;;
69327;SDS011;56472;52.114;5.492;2023-06-19T13:29:14;10.27;;;7.40;;
69327;SDS011;56472;52.114;5.492;2023-06-19T13:31:42;7.75;;;6.75;;
69327;SDS011;56472;52.114;5.492;2023-06-19T13:34:08;10.13;;;7.00;;
69327;SDS011;56472;52.114;5.492;2023-06-19T13:36:35;7.18;;;6.38;;
69327;SDS011;56472;52.114;5.492;2023-06-19T13:39:03;9.27;;;7.00;;
69327;SDS011;56472;52.114;5.492;2023-06-19T13:41:30;7.97;;;7.18;;
69327;SDS011;56472;52.114;5.492;2023-06-19T13:43:59;11.40;;;6.85;;
69327;SDS011;56472;52.114;5.492;2023-06-19T13:46:26;7.05;;;6.40;;
69327;SDS011;56472;52.114;5.492;2023-06-19T13:48:54;7.53;;;6.68;;
69327;SDS011;56472;52.114;5.492;2023-06-19T13:51:21;7.30;;;6.60;;
69327;SDS011;56472;52.114;5.492;2023-06-19T13:53:49;7.47;;;6.75;;
69327;SDS011;56472;52.114;5.492;2023-06-19T13:56:17;7.07;;;6.38;;
69327;SDS011;56472;52.114;5.492;2023-06-19T13:58:44;7.18;;;6.47;;
69327;SDS011;56472;52.114;5.492;2023-06-19T14:01:12;7.90;;;5.93;;
69327;SDS011;56472;52.114;5.492;2023-06-19T14:03:39;6.47;;;5.88;;
69327;SDS011;56472;52.114;5.492;2023-06-19T14:06:06;7.57;;;6.10;;
69327;SDS011;56472;52.114;5.492;2023-06-19T14:08:33;7.45;;;5.80;;
69327;SDS011;56472;52.114;5.492;2023-06-19T14:11:00;6.72;;;5.47;;
69327;SDS011;56472;52.114;5.492;2023-06-19T14:13:27;6.70;;;5.97;;
69327;SDS011;56472;52.114;5.492;2023-06-19T14:15:55;6.35;;;5.72;;
69327;SDS011;56472;52.114;5.492;2023-06-19T14:18:22;7.63;;;5.40;;
69327;SDS011;56472;52.114;5.492;2023-06-19T14:20:48;7.15;;;6.45;;
69327;SDS011;56472;52.114;5.492;2023-06-19T14:23:15;6.43;;;5.82;;
69327;SDS011;56472;52.114;5.492;2023-06-19T14:25:42;6.80;;;5.80;;
69327;SDS011;56472;52.114;5.492;2023-06-19T14:28:10;5.88;;;5.40;;
69327;SDS011;56472;52.114;5.492;2023-06-19T14:30:37;6.55;;;5.72;;
69327;SDS011;56472;52.114;5.492;2023-06-19T14:33:05;7.03;;;6.07;;
69327;SDS011;56472;52.114;5.492;2023-06-19T14:35:33;6.32;;;5.60;;
69327;SDS011;56472;52.114;5.492;2023-06-19T14:38:00;7.85;;;5.60;;
69327;SDS011;56472;52.114;5.492;2023-06-19T14:40:27;7.07;;;5.55;;
69327;SDS011;56472;52.114;5.492;2023-06-19T14:42:54;6.43;;;5.88;;
69327;SDS011;56472;52.114;5.492;2023-06-19T14:45:21;6.18;;;5.68;;
69327;SDS011;56472;52.114;5.492;2023-06-19T14:47:47;6.57;;;5.97;;
69327;SDS011;56472;52.114;5.492;2023-06-19T14:50:15;8.32;;;6.07;;
69327;SDS011;56472;52.114;5.492;2023-06-19T14:52:42;5.90;;;5.30;;
69327;SDS011;56472;52.114;5.492;2023-06-19T14:55:09;8.60;;;5.40;;
69327;SDS011;56472;52.114;5.492;2023-06-19T14:57:37;6.22;;;5.63;;
69327;SDS011;56472;52.114;5.492;2023-06-19T15:00:04;6.18;;;5.28;;
69327;SDS011;56472;52.114;5.492;2023-06-19T15:02:32;5.65;;;5.15;;